sensor_id;sensor_type;location;lat;lon;timestamp;P1;durP1;ratioP1;P2;durP2;ratioP2
11677;SDS011;5895;41.950;24.372;2022-09-04T00:00:07;6.50;;;5.95;;
11677;SDS011;5895;41.950;24.372;2022-09-04T00:05:34;6.78;;;5.93;;
11677;SDS011;5895;41.950;24.372;2022-09-04T00:11:06;7.05;;;6.35;;
11677;SDS011;5895;41.950;24.372;2022-09-04T00:13:39;7.60;;;6.13;;
11677;SDS011;5895;41.950;24.372;2022-09-04T00:16:12;6.13;;;5.57;;
11677;SDS011;5895;41.950;24.372;2022-09-04T00:18:45;6.40;;;5.80;;
11677;SDS011;5895;41.950;24.372;2022-09-04T00:21:24;7.18;;;6.00;;
11677;SDS011;5895;41.950;24.372;2022-09-04T00:23:59;7.05;;;5.88;;
11677;SDS011;5895;41.950;24.372;2022-09-04T00:26:35;9.13;;;6.35;;
11677;SDS011;5895;41.950;24.372;2022-09-04T00:29:10;6.68;;;5.95;;
11677;SDS011;5895;41.950;24.372;2022-09-04T00:31:46;6.95;;;6.30;;
11677;SDS011;5895;41.950;24.372;2022-09-04T00:34:22;6.85;;;6.22;;
11677;SDS011;5895;41.950;24.372;2022-09-04T00:37:05;5.72;;;5.22;;
11677;SDS011;5895;41.950;24.372;2022-09-04T00:39:39;7.60;;;5.63;;
11677;SDS011;5895;41.950;24.372;2022-09-04T00:42:15;6.50;;;5.90;;
11677;SDS011;5895;41.950;24.372;2022-09-04T00:45:11;7.03;;;5.63;;
11677;SDS011;5895;41.950;24.372;2022-09-04T00:48:08;6.68;;;6.00;;
11677;SDS011;5895;41.950;24.372;2022-09-04T00:54:06;6.00;;;5.47;;
11677;SDS011;5895;41.950;24.372;2022-09-04T00:56:58;6.00;;;5.43;;
11677;SDS011;5895;41.950;24.372;2022-09-04T00:59:41;6.03;;;5.38;;
11677;SDS011;5895;41.950;24.372;2022-09-04T01:02:25;6.43;;;5.60;;
11677;SDS011;5895;41.950;24.372;2022-09-04T01:05:04;6.07;;;5.47;;
11677;SDS011;5895;41.950;24.372;2022-09-04T01:07:43;8.25;;;5.32;;
11677;SDS011;5895;41.950;24.372;2022-09-04T01:10:29;10.73;;;5.85;;
11677;SDS011;5895;41.950;24.372;2022-09-04T01:13:07;6.55;;;5.93;;
11677;SDS011;5895;41.950;24.372;2022-09-04T01:15:39;7.55;;;5.88;;
11677;SDS011;5895;41.950;24.372;2022-09-04T01:18:11;6.93;;;5.90;;
11677;SDS011;5895;41.950;24.372;2022-09-04T01:20:49;6.18;;;5.57;;
11677;SDS011;5895;41.950;24.372;2022-09-04T01:23:29;6.30;;;5.72;;
11677;SDS011;5895;41.950;24.372;2022-09-04T01:26:20;6.15;;;5.60;;
11677;SDS011;5895;41.950;24.372;2022-09-04T01:28:55;6.53;;;5.75;;
11677;SDS011;5895;41.950;24.372;2022-09-04T01:31:36;10.50;;;6.00;;
11677;SDS011;5895;41.950;24.372;2022-09-04T01:34:14;10.38;;;6.28;;
11677;SDS011;5895;41.950;24.372;2022-09-04T01:36:55;6.90;;;6.30;;
11677;SDS011;5895;41.950;24.372;2022-09-04T01:39:31;6.82;;;6.22;;
11677;SDS011;5895;41.950;24.372;2022-09-04T01:42:04;10.68;;;6.82;;
11677;SDS011;5895;41.950;24.372;2022-09-04T01:44:38;9.15;;;6.97;;
11677;SDS011;5895;41.950;24.372;2022-09-04T01:47:08;8.20;;;6.80;;
11677;SDS011;5895;41.950;24.372;2022-09-04T01:49:42;6.38;;;5.78;;
11677;SDS011;5895;41.950;24.372;2022-09-04T01:52:29;7.15;;;6.50;;
11677;SDS011;5895;41.950;24.372;2022-09-04T01:55:15;6.65;;;6.05;;
11677;SDS011;5895;41.950;24.372;2022-09-04T01:58:03;7.13;;;6.43;;
11677;SDS011;5895;41.950;24.372;2022-09-04T02:00:43;7.45;;;6.40;;
11677;SDS011;5895;41.950;24.372;2022-09-04T02:03:20;8.10;;;7.25;;
11677;SDS011;5895;41.950;24.372;2022-09-04T02:05:56;7.05;;;6.03;;
11677;SDS011;5895;41.950;24.372;2022-09-04T02:08:36;7.32;;;6.57;;
11677;SDS011;5895;41.950;24.372;2022-09-04T02:11:14;6.50;;;5.90;;
11677;SDS011;5895;41.950;24.372;2022-09-04T02:13:51;6.72;;;6.13;;
11677;SDS011;5895;41.950;24.372;2022-09-04T02:16:32;6.97;;;6.28;;
11677;SDS011;5895;41.950;24.372;2022-09-04T02:19:10;7.40;;;6.38;;
11677;SDS011;5895;41.950;24.372;2022-09-04T02:21:50;7.25;;;6.55;;
11677;SDS011;5895;41.950;24.372;2022-09-04T02:24:27;6.63;;;5.90;;
11677;SDS011;5895;41.950;24.372;2022-09-04T02:27:03;6.38;;;5.80;;
11677;SDS011;5895;41.950;24.372;2022-09-04T02:29:38;9.32;;;5.75;;
11677;SDS011;5895;41.950;24.372;2022-09-04T02:32:11;6.35;;;5.75;;
11677;SDS011;5895;41.950;24.372;2022-09-04T02:34:46;6.50;;;5.90;;
11677;SDS011;5895;41.950;24.372;2022-09-04T02:37:21;7.15;;;6.35;;
11677;SDS011;5895;41.950;24.372;2022-09-04T02:39:58;6.85;;;6.25;;
11677;SDS011;5895;41.950;24.372;2022-09-04T02:42:38;7.65;;;6.95;;
11677;SDS011;5895;41.950;24.372;2022-09-04T02:45:21;6.97;;;6.35;;
11677;SDS011;5895;41.950;24.372;2022-09-04T02:47:56;9.13;;;8.32;;
11677;SDS011;5895;41.950;24.372;2022-09-04T02:50:35;7.35;;;6.57;;
11677;SDS011;5895;41.950;24.372;2022-09-04T02:53:21;8.75;;;7.25;;
11677;SDS011;5895;41.950;24.372;2022-09-04T02:55:58;8.57;;;7.78;;
11677;SDS011;5895;41.950;24.372;2022-09-04T02:58:40;9.27;;;6.95;;
11677;SDS011;5895;41.950;24.372;2022-09-04T03:01:18;10.25;;;7.90;;
11677;SDS011;5895;41.950;24.372;2022-09-04T03:03:53;8.23;;;7.43;;
11677;SDS011;5895;41.950;24.372;2022-09-04T03:06:30;9.48;;;8.45;;
11677;SDS011;5895;41.950;24.372;2022-09-04T03:09:09;9.77;;;8.20;;
11677;SDS011;5895;41.950;24.372;2022-09-04T03:11:41;9.68;;;8.77;;
11677;SDS011;5895;41.950;24.372;2022-09-04T03:14:13;9.77;;;7.93;;
11677;SDS011;5895;41.950;24.372;2022-09-04T03:16:50;8.75;;;7.95;;
11677;SDS011;5895;41.950;24.372;2022-09-04T03:19:23;8.57;;;7.72;;
11677;SDS011;5895;41.950;24.372;2022-09-04T03:21:58;9.25;;;8.35;;
11677;SDS011;5895;41.950;24.372;2022-09-04T03:24:33;8.15;;;7.22;;
11677;SDS011;5895;41.950;24.372;2022-09-04T03:27:07;10.27;;;6.70;;
11677;SDS011;5895;41.950;24.372;2022-09-04T03:29:40;8.52;;;7.72;;
11677;SDS011;5895;41.950;24.372;2022-09-04T03:32:17;8.60;;;6.90;;
11677;SDS011;5895;41.950;24.372;2022-09-04T03:34:48;7.43;;;6.25;;
11677;SDS011;5895;41.950;24.372;2022-09-04T03:37:26;7.00;;;6.40;;
11677;SDS011;5895;41.950;24.372;2022-09-04T03:40:09;10.02;;;6.50;;
11677;SDS011;5895;41.950;24.372;2022-09-04T03:42:47;8.63;;;7.75;;
11677;SDS011;5895;41.950;24.372;2022-09-04T03:45:28;8.10;;;7.30;;
11677;SDS011;5895;41.950;24.372;2022-09-04T03:48:13;6.90;;;6.07;;
11677;SDS011;5895;41.950;24.372;2022-09-04T03:50:54;8.60;;;7.75;;
11677;SDS011;5895;41.950;24.372;2022-09-04T03:53:27;8.10;;;7.32;;
11677;SDS011;5895;41.950;24.372;2022-09-04T03:56:25;8.55;;;6.53;;
11677;SDS011;5895;41.950;24.372;2022-09-04T03:59:05;8.95;;;7.32;;
11677;SDS011;5895;41.950;24.372;2022-09-04T04:01:37;7.55;;;6.85;;
11677;SDS011;5895;41.950;24.372;2022-09-04T04:04:25;7.32;;;6.53;;
11677;SDS011;5895;41.950;24.372;2022-09-04T04:07:10;5.80;;;5.30;;
11677;SDS011;5895;41.950;24.372;2022-09-04T04:09:51;6.15;;;5.55;;
11677;SDS011;5895;41.950;24.372;2022-09-04T04:12:34;7.40;;;6.40;;
11677;SDS011;5895;41.950;24.372;2022-09-04T04:15:17;8.15;;;6.45;;
11677;SDS011;5895;41.950;24.372;2022-09-04T04:18:04;7.00;;;6.40;;
11677;SDS011;5895;41.950;24.372;2022-09-04T04:20:54;10.20;;;6.45;;
11677;SDS011;5895;41.950;24.372;2022-09-04T04:23:45;10.30;;;6.65;;
11677;SDS011;5895;41.950;24.372;2022-09-04T04:26:26;4.13;;;3.70;;
11677;SDS011;5895;41.950;24.372;2022-09-04T04:29:15;8.15;;;7.32;;
11677;SDS011;5895;41.950;24.372;2022-09-04T04:32:05;12.57;;;7.78;;
11677;SDS011;5895;41.950;24.372;2022-09-04T04:34:58;5.60;;;5.10;;
11677;SDS011;5895;41.950;24.372;2022-09-04T04:37:40;8.23;;;6.78;;
11677;SDS011;5895;41.950;24.372;2022-09-04T04:40:20;9.95;;;5.57;;
11677;SDS011;5895;41.950;24.372;2022-09-04T04:42:59;6.32;;;5.72;;
11677;SDS011;5895;41.950;24.372;2022-09-04T04:45:35;8.23;;;7.25;;
11677;SDS011;5895;41.950;24.372;2022-09-04T04:48:40;9.95;;;8.95;;
11677;SDS011;5895;41.950;24.372;2022-09-04T04:51:40;9.57;;;7.95;;
11677;SDS011;5895;41.950;24.372;2022-09-04T04:54:24;7.30;;;6.13;;
11677;SDS011;5895;41.950;24.372;2022-09-04T04:57:10;7.47;;;6.88;;
11677;SDS011;5895;41.950;24.372;2022-09-04T04:59:48;7.00;;;6.30;;
11677;SDS011;5895;41.950;24.372;2022-09-04T05:02:31;7.45;;;6.80;;
11677;SDS011;5895;41.950;24.372;2022-09-04T05:05:06;8.60;;;7.80;;
11677;SDS011;5895;41.950;24.372;2022-09-04T05:07:41;12.13;;;10.88;;
11677;SDS011;5895;41.950;24.372;2022-09-04T05:10:16;15.40;;;12.98;;
11677;SDS011;5895;41.950;24.372;2022-09-04T05:12:58;16.50;;;14.80;;
11677;SDS011;5895;41.950;24.372;2022-09-04T05:15:37;15.68;;;14.27;;
11677;SDS011;5895;41.950;24.372;2022-09-04T05:18:12;10.30;;;9.30;;
11677;SDS011;5895;41.950;24.372;2022-09-04T05:20:46;11.30;;;10.30;;
11677;SDS011;5895;41.950;24.372;2022-09-04T05:23:22;13.40;;;12.10;;
11677;SDS011;5895;41.950;24.372;2022-09-04T05:26:01;12.95;;;11.20;;
11677;SDS011;5895;41.950;24.372;2022-09-04T05:28:41;12.15;;;10.75;;
11677;SDS011;5895;41.950;24.372;2022-09-04T05:31:19;12.15;;;10.77;;
11677;SDS011;5895;41.950;24.372;2022-09-04T05:34:05;13.95;;;12.55;;
11677;SDS011;5895;41.950;24.372;2022-09-04T05:36:41;32.08;;;29.00;;
11677;SDS011;5895;41.950;24.372;2022-09-04T05:39:16;30.15;;;27.05;;
11677;SDS011;5895;41.950;24.372;2022-09-04T05:41:57;26.60;;;23.75;;
11677;SDS011;5895;41.950;24.372;2022-09-04T05:44:35;17.77;;;14.20;;
11677;SDS011;5895;41.950;24.372;2022-09-04T05:47:15;11.75;;;10.68;;
11677;SDS011;5895;41.950;24.372;2022-09-04T05:50:01;12.27;;;11.07;;
11677;SDS011;5895;41.950;24.372;2022-09-04T05:55:45;11.13;;;10.13;;
11677;SDS011;5895;41.950;24.372;2022-09-04T05:58:30;9.75;;;8.10;;
11677;SDS011;5895;41.950;24.372;2022-09-04T06:01:13;9.98;;;9.07;;
11677;SDS011;5895;41.950;24.372;2022-09-04T06:06:55;10.20;;;9.27;;
11677;SDS011;5895;41.950;24.372;2022-09-04T06:09:34;9.75;;;8.88;;
11677;SDS011;5895;41.950;24.372;2022-09-04T06:12:23;8.75;;;7.88;;
11677;SDS011;5895;41.950;24.372;2022-09-04T06:15:12;9.50;;;8.55;;
11677;SDS011;5895;41.950;24.372;2022-09-04T06:17:54;9.63;;;7.15;;
11677;SDS011;5895;41.950;24.372;2022-09-04T06:20:49;8.52;;;6.90;;
11677;SDS011;5895;41.950;24.372;2022-09-04T06:23:42;7.13;;;6.43;;
11677;SDS011;5895;41.950;24.372;2022-09-04T06:26:34;7.10;;;6.50;;
11677;SDS011;5895;41.950;24.372;2022-09-04T06:29:21;7.47;;;6.80;;
11677;SDS011;5895;41.950;24.372;2022-09-04T06:32:10;7.45;;;6.85;;
11677;SDS011;5895;41.950;24.372;2022-09-04T06:34:58;7.85;;;7.05;;
11677;SDS011;5895;41.950;24.372;2022-09-04T06:37:35;8.65;;;6.32;;
11677;SDS011;5895;41.950;24.372;2022-09-04T06:40:19;7.20;;;6.60;;
11677;SDS011;5895;41.950;24.372;2022-09-04T06:43:04;8.40;;;7.05;;
11677;SDS011;5895;41.950;24.372;2022-09-04T06:45:46;7.72;;;7.03;;
11677;SDS011;5895;41.950;24.372;2022-09-04T06:48:26;8.18;;;7.47;;
11677;SDS011;5895;41.950;24.372;2022-09-04T06:51:07;7.63;;;6.93;;
11677;SDS011;5895;41.950;24.372;2022-09-04T06:53:51;7.82;;;6.72;;
11677;SDS011;5895;41.950;24.372;2022-09-04T06:56:28;6.97;;;6.38;;
11677;SDS011;5895;41.950;24.372;2022-09-04T06:59:10;7.78;;;7.07;;
11677;SDS011;5895;41.950;24.372;2022-09-04T07:02:00;7.03;;;6.32;;
11677;SDS011;5895;41.950;24.372;2022-09-04T07:04:49;6.47;;;5.88;;
11677;SDS011;5895;41.950;24.372;2022-09-04T07:07:26;7.30;;;6.60;;
11677;SDS011;5895;41.950;24.372;2022-09-04T07:09:59;7.43;;;6.05;;
11677;SDS011;5895;41.950;24.372;2022-09-04T07:12:36;7.05;;;6.43;;
11677;SDS011;5895;41.950;24.372;2022-09-04T07:18:16;7.25;;;6.15;;
11677;SDS011;5895;41.950;24.372;2022-09-04T07:20:58;8.10;;;6.63;;
11677;SDS011;5895;41.950;24.372;2022-09-04T07:23:37;8.10;;;6.38;;
11677;SDS011;5895;41.950;24.372;2022-09-04T07:26:16;7.00;;;6.32;;
11677;SDS011;5895;41.950;24.372;2022-09-04T07:29:07;7.38;;;6.78;;
11677;SDS011;5895;41.950;24.372;2022-09-04T07:31:45;9.38;;;5.63;;
11677;SDS011;5895;41.950;24.372;2022-09-04T07:34:22;6.85;;;5.75;;
11677;SDS011;5895;41.950;24.372;2022-09-04T07:36:58;6.10;;;5.60;;
11677;SDS011;5895;41.950;24.372;2022-09-04T07:39:38;6.15;;;5.55;;
11677;SDS011;5895;41.950;24.372;2022-09-04T07:42:16;6.00;;;5.50;;
11677;SDS011;5895;41.950;24.372;2022-09-04T07:44:53;9.25;;;5.57;;
11677;SDS011;5895;41.950;24.372;2022-09-04T07:47:27;6.68;;;5.97;;
11677;SDS011;5895;41.950;24.372;2022-09-04T07:50:01;7.30;;;6.00;;
11677;SDS011;5895;41.950;24.372;2022-09-04T07:52:51;11.68;;;6.00;;
11677;SDS011;5895;41.950;24.372;2022-09-04T07:55:40;6.85;;;6.05;;
11677;SDS011;5895;41.950;24.372;2022-09-04T08:01:25;5.60;;;5.20;;
11677;SDS011;5895;41.950;24.372;2022-09-04T08:04:16;6.10;;;5.60;;
11677;SDS011;5895;41.950;24.372;2022-09-04T08:07:02;6.10;;;5.47;;
11677;SDS011;5895;41.950;24.372;2022-09-04T08:09:39;7.43;;;6.22;;
11677;SDS011;5895;41.950;24.372;2022-09-04T08:12:25;6.63;;;6.03;;
11677;SDS011;5895;41.950;24.372;2022-09-04T08:15:07;6.95;;;6.35;;
11677;SDS011;5895;41.950;24.372;2022-09-04T08:20:39;7.07;;;6.18;;
11677;SDS011;5895;41.950;24.372;2022-09-04T08:23:23;9.27;;;6.20;;
11677;SDS011;5895;41.950;24.372;2022-09-04T08:26:10;6.80;;;6.20;;
11677;SDS011;5895;41.950;24.372;2022-09-04T08:28:50;7.63;;;6.85;;
11677;SDS011;5895;41.950;24.372;2022-09-04T08:31:28;7.15;;;6.55;;
11677;SDS011;5895;41.950;24.372;2022-09-04T08:34:22;6.63;;;6.13;;
11677;SDS011;5895;41.950;24.372;2022-09-04T08:37:01;7.22;;;6.53;;
11677;SDS011;5895;41.950;24.372;2022-09-04T08:39:37;7.03;;;6.50;;
11677;SDS011;5895;41.950;24.372;2022-09-04T08:45:33;6.75;;;5.72;;
11677;SDS011;5895;41.950;24.372;2022-09-04T08:48:32;6.13;;;5.63;;
11677;SDS011;5895;41.950;24.372;2022-09-04T08:51:30;5.40;;;5.00;;
11677;SDS011;5895;41.950;24.372;2022-09-04T08:57:45;7.47;;;6.78;;
11677;SDS011;5895;41.950;24.372;2022-09-04T09:00:41;7.90;;;6.47;;
11677;SDS011;5895;41.950;24.372;2022-09-04T09:06:44;6.50;;;5.90;;
11677;SDS011;5895;41.950;24.372;2022-09-04T09:12:28;142.27;;;13.25;;
11677;SDS011;5895;41.950;24.372;2022-09-04T09:15:17;7.30;;;6.60;;
11677;SDS011;5895;41.950;24.372;2022-09-04T09:18:01;8.85;;;5.82;;
11677;SDS011;5895;41.950;24.372;2022-09-04T09:20:38;9.38;;;8.48;;
11677;SDS011;5895;41.950;24.372;2022-09-04T09:23:19;6.75;;;6.25;;
11677;SDS011;5895;41.950;24.372;2022-09-04T09:26:00;6.78;;;6.10;;
11677;SDS011;5895;41.950;24.372;2022-09-04T09:32:05;6.80;;;6.20;;
11677;SDS011;5895;41.950;24.372;2022-09-04T09:44:12;5.03;;;4.53;;
11677;SDS011;5895;41.950;24.372;2022-09-04T09:47:20;4.88;;;4.47;;
11677;SDS011;5895;41.950;24.372;2022-09-04T09:50:24;6.35;;;5.85;;
11677;SDS011;5895;41.950;24.372;2022-09-04T09:53:14;6.88;;;5.95;;
11677;SDS011;5895;41.950;24.372;2022-09-04T09:56:12;5.47;;;4.97;;
11677;SDS011;5895;41.950;24.372;2022-09-04T09:59:09;5.50;;;5.00;;
11677;SDS011;5895;41.950;24.372;2022-09-04T10:02:11;4.93;;;4.53;;
11677;SDS011;5895;41.950;24.372;2022-09-04T10:05:20;6.15;;;5.65;;
11677;SDS011;5895;41.950;24.372;2022-09-04T10:08:10;5.47;;;5.05;;
11677;SDS011;5895;41.950;24.372;2022-09-04T10:10:57;5.22;;;4.82;;
11677;SDS011;5895;41.950;24.372;2022-09-04T10:13:46;6.00;;;5.50;;
11677;SDS011;5895;41.950;24.372;2022-09-04T10:23:09;11.77;;;7.45;;
11677;SDS011;5895;41.950;24.372;2022-09-04T10:26:24;49.45;;;17.73;;
11677;SDS011;5895;41.950;24.372;2022-09-04T10:35:21;7.55;;;6.95;;
11677;SDS011;5895;41.950;24.372;2022-09-04T10:41:18;8.18;;;7.38;;
11677;SDS011;5895;41.950;24.372;2022-09-04T10:44:12;8.38;;;7.47;;
11677;SDS011;5895;41.950;24.372;2022-09-04T10:46:57;6.70;;;6.20;;
11677;SDS011;5895;41.950;24.372;2022-09-04T10:49:38;6.60;;;6.00;;
11677;SDS011;5895;41.950;24.372;2022-09-04T10:55:30;5.38;;;4.97;;
11677;SDS011;5895;41.950;24.372;2022-09-04T10:58:14;5.95;;;5.40;;
11677;SDS011;5895;41.950;24.372;2022-09-04T11:00:58;5.38;;;4.97;;
11677;SDS011;5895;41.950;24.372;2022-09-04T11:06:55;6.38;;;5.40;;
11677;SDS011;5895;41.950;24.372;2022-09-04T11:09:48;5.40;;;5.00;;
11677;SDS011;5895;41.950;24.372;2022-09-04T11:12:39;6.22;;;5.72;;
11677;SDS011;5895;41.950;24.372;2022-09-04T11:15:34;6.70;;;6.20;;
11677;SDS011;5895;41.950;24.372;2022-09-04T11:18:24;6.05;;;5.50;;
11677;SDS011;5895;41.950;24.372;2022-09-04T11:27:40;6.80;;;6.05;;
11677;SDS011;5895;41.950;24.372;2022-09-04T11:30:28;6.30;;;5.80;;
11677;SDS011;5895;41.950;24.372;2022-09-04T11:42:28;9.00;;;5.80;;
11677;SDS011;5895;41.950;24.372;2022-09-04T11:45:14;5.22;;;4.70;;
11677;SDS011;5895;41.950;24.372;2022-09-04T11:51:15;6.00;;;5.50;;
11677;SDS011;5895;41.950;24.372;2022-09-04T11:57:03;5.53;;;5.13;;
11677;SDS011;5895;41.950;24.372;2022-09-04T11:59:43;5.53;;;5.07;;
11677;SDS011;5895;41.950;24.372;2022-09-04T12:05:23;5.03;;;4.63;;
11677;SDS011;5895;41.950;24.372;2022-09-04T12:08:09;7.93;;;4.75;;
11677;SDS011;5895;41.950;24.372;2022-09-04T12:10:59;4.53;;;4.18;;
11677;SDS011;5895;41.950;24.372;2022-09-04T12:13:54;5.32;;;4.93;;
11677;SDS011;5895;41.950;24.372;2022-09-04T12:16:52;4.90;;;4.60;;
11677;SDS011;5895;41.950;24.372;2022-09-04T12:23:00;7.43;;;5.80;;
11677;SDS011;5895;41.950;24.372;2022-09-04T12:29:10;6.47;;;5.97;;
11677;SDS011;5895;41.950;24.372;2022-09-04T12:32:08;6.93;;;6.10;;
11677;SDS011;5895;41.950;24.372;2022-09-04T12:35:19;6.55;;;6.05;;
11677;SDS011;5895;41.950;24.372;2022-09-04T12:38:08;7.25;;;6.65;;
11677;SDS011;5895;41.950;24.372;2022-09-04T12:40:52;6.53;;;5.88;;
11677;SDS011;5895;41.950;24.372;2022-09-04T12:43:31;7.10;;;6.60;;
11677;SDS011;5895;41.950;24.372;2022-09-04T12:46:13;6.40;;;5.90;;
11677;SDS011;5895;41.950;24.372;2022-09-04T12:48:58;8.90;;;6.22;;
11677;SDS011;5895;41.950;24.372;2022-09-04T12:51:35;6.80;;;6.20;;
11677;SDS011;5895;41.950;24.372;2022-09-04T12:54:16;8.10;;;7.07;;
11677;SDS011;5895;41.950;24.372;2022-09-04T12:56:52;7.90;;;7.30;;
11677;SDS011;5895;41.950;24.372;2022-09-04T12:59:42;7.10;;;6.45;;
11677;SDS011;5895;41.950;24.372;2022-09-04T13:02:21;8.90;;;8.00;;
11677;SDS011;5895;41.950;24.372;2022-09-04T13:05:02;8.80;;;7.57;;
11677;SDS011;5895;41.950;24.372;2022-09-04T13:07:47;6.47;;;5.93;;
11677;SDS011;5895;41.950;24.372;2022-09-04T13:10:23;8.77;;;6.95;;
11677;SDS011;5895;41.950;24.372;2022-09-04T13:13:02;7.47;;;6.88;;
11677;SDS011;5895;41.950;24.372;2022-09-04T13:15:46;8.98;;;7.00;;
11677;SDS011;5895;41.950;24.372;2022-09-04T13:18:27;7.88;;;6.97;;
11677;SDS011;5895;41.950;24.372;2022-09-04T13:21:12;8.07;;;7.38;;
11677;SDS011;5895;41.950;24.372;2022-09-04T13:23:54;8.27;;;7.57;;
11677;SDS011;5895;41.950;24.372;2022-09-04T13:26:39;10.60;;;6.57;;
11677;SDS011;5895;41.950;24.372;2022-09-04T13:29:21;8.50;;;7.70;;
11677;SDS011;5895;41.950;24.372;2022-09-04T13:31:58;7.88;;;7.18;;
11677;SDS011;5895;41.950;24.372;2022-09-04T13:34:48;8.13;;;7.43;;
11677;SDS011;5895;41.950;24.372;2022-09-04T13:37:33;7.72;;;7.03;;
11677;SDS011;5895;41.950;24.372;2022-09-04T13:40:13;7.32;;;6.70;;
11677;SDS011;5895;41.950;24.372;2022-09-04T13:43:16;9.85;;;7.60;;
11677;SDS011;5895;41.950;24.372;2022-09-04T13:45:56;7.03;;;6.30;;
11677;SDS011;5895;41.950;24.372;2022-09-04T13:48:30;14.60;;;6.90;;
11677;SDS011;5895;41.950;24.372;2022-09-04T13:51:06;7.28;;;6.60;;
11677;SDS011;5895;41.950;24.372;2022-09-04T13:53:40;6.65;;;6.05;;
11677;SDS011;5895;41.950;24.372;2022-09-04T13:56:21;7.05;;;6.55;;
11677;SDS011;5895;41.950;24.372;2022-09-04T13:58:56;8.30;;;7.50;;
11677;SDS011;5895;41.950;24.372;2022-09-04T14:01:26;9.40;;;8.50;;
11677;SDS011;5895;41.950;24.372;2022-09-04T14:03:54;8.55;;;7.57;;
11677;SDS011;5895;41.950;24.372;2022-09-04T14:06:28;9.80;;;7.57;;
11677;SDS011;5895;41.950;24.372;2022-09-04T14:08:57;8.10;;;7.28;;
11677;SDS011;5895;41.950;24.372;2022-09-04T14:11:38;8.50;;;7.63;;
11677;SDS011;5895;41.950;24.372;2022-09-04T14:17:41;6.97;;;6.25;;
11677;SDS011;5895;41.950;24.372;2022-09-04T14:20:25;7.75;;;6.95;;
11677;SDS011;5895;41.950;24.372;2022-09-04T14:23:03;6.40;;;5.90;;
11677;SDS011;5895;41.950;24.372;2022-09-04T14:25:39;7.00;;;6.50;;
11677;SDS011;5895;41.950;24.372;2022-09-04T14:28:17;7.57;;;6.88;;
11677;SDS011;5895;41.950;24.372;2022-09-04T14:30:51;7.15;;;6.50;;
11677;SDS011;5895;41.950;24.372;2022-09-04T14:33:28;8.10;;;7.40;;
11677;SDS011;5895;41.950;24.372;2022-09-04T14:36:07;8.98;;;8.18;;
11677;SDS011;5895;41.950;24.372;2022-09-04T14:38:50;10.07;;;9.18;;
11677;SDS011;5895;41.950;24.372;2022-09-04T14:41:35;9.82;;;8.98;;
11677;SDS011;5895;41.950;24.372;2022-09-04T14:44:13;12.82;;;8.55;;
11677;SDS011;5895;41.950;24.372;2022-09-04T14:46:51;21.98;;;20.10;;
11677;SDS011;5895;41.950;24.372;2022-09-04T14:49:29;10.40;;;9.40;;
11677;SDS011;5895;41.950;24.372;2022-09-04T14:51:59;11.07;;;9.32;;
11677;SDS011;5895;41.950;24.372;2022-09-04T14:54:37;10.48;;;9.00;;
11677;SDS011;5895;41.950;24.372;2022-09-04T14:57:11;9.63;;;8.80;;
11677;SDS011;5895;41.950;24.372;2022-09-04T14:59:47;10.00;;;9.10;;
11677;SDS011;5895;41.950;24.372;2022-09-04T15:02:23;8.57;;;7.88;;
11677;SDS011;5895;41.950;24.372;2022-09-04T15:04:59;9.15;;;8.35;;
11677;SDS011;5895;41.950;24.372;2022-09-04T15:07:45;10.13;;;8.15;;
11677;SDS011;5895;41.950;24.372;2022-09-04T15:10:24;10.32;;;9.43;;
11677;SDS011;5895;41.950;24.372;2022-09-04T15:13:02;11.27;;;9.57;;
11677;SDS011;5895;41.950;24.372;2022-09-04T15:15:44;9.80;;;8.88;;
11677;SDS011;5895;41.950;24.372;2022-09-04T15:18:18;8.80;;;7.97;;
11677;SDS011;5895;41.950;24.372;2022-09-04T15:20:52;9.00;;;8.30;;
11677;SDS011;5895;41.950;24.372;2022-09-04T15:23:25;9.73;;;8.82;;
11677;SDS011;5895;41.950;24.372;2022-09-04T15:26:01;9.98;;;9.07;;
11677;SDS011;5895;41.950;24.372;2022-09-04T15:28:36;10.63;;;9.73;;
11677;SDS011;5895;41.950;24.372;2022-09-04T15:31:09;10.10;;;9.20;;
11677;SDS011;5895;41.950;24.372;2022-09-04T15:33:38;10.88;;;9.88;;
11677;SDS011;5895;41.950;24.372;2022-09-04T15:36:08;9.90;;;8.20;;
11677;SDS011;5895;41.950;24.372;2022-09-04T15:38:44;10.02;;;9.13;;
11677;SDS011;5895;41.950;24.372;2022-09-04T15:41:16;8.88;;;8.07;;
11677;SDS011;5895;41.950;24.372;2022-09-04T15:43:50;7.75;;;7.05;;
11677;SDS011;5895;41.950;24.372;2022-09-04T15:46:23;7.28;;;6.68;;
11677;SDS011;5895;41.950;24.372;2022-09-04T15:49:02;8.05;;;7.35;;
11677;SDS011;5895;41.950;24.372;2022-09-04T15:51:46;8.60;;;7.90;;
11677;SDS011;5895;41.950;24.372;2022-09-04T15:54:24;22.75;;;7.32;;
11677;SDS011;5895;41.950;24.372;2022-09-04T15:57:03;8.60;;;7.80;;
11677;SDS011;5895;41.950;24.372;2022-09-04T15:59:37;9.25;;;8.15;;
11677;SDS011;5895;41.950;24.372;2022-09-04T16:02:16;13.75;;;12.50;;
11677;SDS011;5895;41.950;24.372;2022-09-04T16:04:52;10.30;;;9.35;;
11677;SDS011;5895;41.950;24.372;2022-09-04T16:07:32;9.45;;;8.65;;
11677;SDS011;5895;41.950;24.372;2022-09-04T16:10:14;10.20;;;9.30;;
11677;SDS011;5895;41.950;24.372;2022-09-04T16:12:54;10.45;;;9.43;;
11677;SDS011;5895;41.950;24.372;2022-09-04T16:15:26;11.05;;;10.05;;
11677;SDS011;5895;41.950;24.372;2022-09-04T16:17:58;10.07;;;9.25;;
11677;SDS011;5895;41.950;24.372;2022-09-04T16:20:31;9.13;;;8.32;;
11677;SDS011;5895;41.950;24.372;2022-09-04T16:23:03;9.40;;;8.57;;
11677;SDS011;5895;41.950;24.372;2022-09-04T16:25:34;9.45;;;8.65;;
11677;SDS011;5895;41.950;24.372;2022-09-04T16:28:07;9.30;;;8.50;;
11677;SDS011;5895;41.950;24.372;2022-09-04T16:30:37;10.88;;;9.77;;
11677;SDS011;5895;41.950;24.372;2022-09-04T16:33:08;11.88;;;10.77;;
11677;SDS011;5895;41.950;24.372;2022-09-04T16:35:49;12.75;;;11.43;;
11677;SDS011;5895;41.950;24.372;2022-09-04T16:38:20;11.20;;;10.10;;
11677;SDS011;5895;41.950;24.372;2022-09-04T16:40:57;18.65;;;13.32;;
11677;SDS011;5895;41.950;24.372;2022-09-04T16:43:31;50.00;;;43.55;;
11677;SDS011;5895;41.950;24.372;2022-09-04T16:46:03;23.80;;;20.55;;
11677;SDS011;5895;41.950;24.372;2022-09-04T16:48:37;14.25;;;12.93;;
11677;SDS011;5895;41.950;24.372;2022-09-04T16:51:12;10.43;;;9.52;;
11677;SDS011;5895;41.950;24.372;2022-09-04T16:53:49;11.90;;;9.73;;
11677;SDS011;5895;41.950;24.372;2022-09-04T16:56:19;10.07;;;9.18;;
11677;SDS011;5895;41.950;24.372;2022-09-04T16:58:53;11.32;;;10.43;;
11677;SDS011;5895;41.950;24.372;2022-09-04T17:01:26;11.82;;;10.75;;
11677;SDS011;5895;41.950;24.372;2022-09-04T17:04:05;11.18;;;10.27;;
11677;SDS011;5895;41.950;24.372;2022-09-04T17:06:48;11.85;;;10.73;;
11677;SDS011;5895;41.950;24.372;2022-09-04T17:09:29;12.48;;;11.48;;
11677;SDS011;5895;41.950;24.372;2022-09-04T17:12:13;13.20;;;12.02;;
11677;SDS011;5895;41.950;24.372;2022-09-04T17:14:50;14.20;;;12.85;;
11677;SDS011;5895;41.950;24.372;2022-09-04T17:17:23;12.15;;;11.00;;
11677;SDS011;5895;41.950;24.372;2022-09-04T17:20:04;12.00;;;10.85;;
11677;SDS011;5895;41.950;24.372;2022-09-04T17:22:35;14.20;;;11.40;;
11677;SDS011;5895;41.950;24.372;2022-09-04T17:25:14;14.85;;;13.52;;
11677;SDS011;5895;41.950;24.372;2022-09-04T17:27:48;13.45;;;12.18;;
11677;SDS011;5895;41.950;24.372;2022-09-04T17:30:27;10.30;;;9.40;;
11677;SDS011;5895;41.950;24.372;2022-09-04T17:33:01;10.73;;;9.88;;
11677;SDS011;5895;41.950;24.372;2022-09-04T17:35:34;11.35;;;10.38;;
11677;SDS011;5895;41.950;24.372;2022-09-04T17:38:14;10.98;;;9.68;;
11677;SDS011;5895;41.950;24.372;2022-09-04T17:40:52;10.73;;;9.63;;
11677;SDS011;5895;41.950;24.372;2022-09-04T17:43:27;11.25;;;10.25;;
11677;SDS011;5895;41.950;24.372;2022-09-04T17:46:10;11.65;;;10.07;;
11677;SDS011;5895;41.950;24.372;2022-09-04T17:48:51;11.20;;;10.05;;
11677;SDS011;5895;41.950;24.372;2022-09-04T17:51:21;10.45;;;9.65;;